createdAt,value
2022-09-11T00:00:41.160Z,95.61
2022-09-11T00:01:41.182Z,95.81
2022-09-11T00:02:41.173Z,95.91
2022-09-11T00:03:41.153Z,95.91
2022-09-11T00:04:41.110Z,95.81
2022-09-11T00:05:41.097Z,95.71
2022-09-11T00:06:41.110Z,95.71
2022-09-11T00:07:41.062Z,95.71
2022-09-11T00:08:41.054Z,95.71
2022-09-11T00:09:41.052Z,95.61
2022-09-11T00:10:41.038Z,95.61
2022-09-11T00:11:41.038Z,95.50
2022-09-11T00:12:40.999Z,95.40
2022-09-11T00:13:41.131Z,95.30
2022-09-11T00:14:41.008Z,95.20
2022-09-11T00:15:40.972Z,95.10
2022-09-11T00:16:40.962Z,95.10
2022-09-11T00:17:40.941Z,95.20
2022-09-11T00:18:41.088Z,95.10
2022-09-11T00:19:40.921Z,95.10
2022-09-11T00:20:40.933Z,95.10
2022-09-11T00:21:40.898Z,95.00
2022-09-11T00:22:40.892Z,95.00
2022-09-11T00:23:40.994Z,95.00
2022-09-11T00:24:40.918Z,95.00
2022-09-11T00:25:40.885Z,95.10
2022-09-11T00:26:40.868Z,95.10
2022-09-11T00:27:40.843Z,95.10
2022-09-11T00:28:40.829Z,95.10
2022-09-11T00:29:40.814Z,95.10
2022-09-11T00:30:40.807Z,95.10
2022-09-11T00:31:40.800Z,95.10
2022-09-11T00:32:40.799Z,95.00
2022-09-11T00:33:40.830Z,94.90
2022-09-11T00:34:40.796Z,95.00
2022-09-11T00:35:40.758Z,95.10
2022-09-11T00:36:40.739Z,95.10
2022-09-11T00:37:40.726Z,95.20
2022-09-11T00:38:40.697Z,95.20
2022-09-11T00:39:40.769Z,95.20
2022-09-11T00:40:40.712Z,95.20
2022-09-11T00:41:40.696Z,95.10
2022-09-11T00:42:40.679Z,94.90
2022-09-11T00:43:40.666Z,94.79
2022-09-11T00:44:40.640Z,94.79
2022-09-11T00:45:40.672Z,94.70
2022-09-11T00:46:40.630Z,94.70
2022-09-11T00:47:40.609Z,94.59
2022-09-11T00:48:40.606Z,94.49
2022-09-11T00:49:40.596Z,94.39
2022-09-11T00:50:40.582Z,94.49
2022-09-11T00:51:40.579Z,94.59
2022-09-11T00:52:40.550Z,94.29
2022-09-11T00:53:41.633Z,94.19
2022-09-11T00:54:40.516Z,94.29
2022-09-11T00:55:40.524Z,94.39
2022-09-11T00:56:40.508Z,94.39
2022-09-11T00:57:40.508Z,94.39
2022-09-11T00:58:40.490Z,94.29
2022-09-11T00:59:40.473Z,94.29
2022-09-11T01:00:40.509Z,94.29
2022-09-11T01:01:40.500Z,94.29
2022-09-11T01:02:40.467Z,94.29
2022-09-11T01:03:40.537Z,94.19
2022-09-11T01:04:40.410Z,94.29
2022-09-11T01:05:40.403Z,94.19
2022-09-11T01:06:40.399Z,94.19
2022-09-11T01:07:40.414Z,93.99
2022-09-11T01:08:40.402Z,93.99
2022-09-11T01:09:40.367Z,94.09
2022-09-11T01:10:40.371Z,94.09
2022-09-11T01:11:40.335Z,94.19
2022-09-11T01:12:40.325Z,94.29
2022-09-11T01:13:40.416Z,94.39
2022-09-11T01:14:40.300Z,94.39
2022-09-11T01:15:40.304Z,94.29
2022-09-11T01:16:40.339Z,94.39
2022-09-11T01:17:40.261Z,94.39
2022-09-11T01:18:40.240Z,94.39
2022-09-11T01:19:40.247Z,94.39
2022-09-11T01:20:40.263Z,94.43
2022-09-11T01:21:40.241Z,94.74
2022-09-11T01:22:40.192Z,94.94
2022-09-11T01:23:40.224Z,95.04
2022-09-11T01:24:40.192Z,94.94
2022-09-11T01:25:40.185Z,94.74
2022-09-11T01:26:40.163Z,94.64
2022-09-11T01:27:40.147Z,94.59
2022-09-11T01:28:40.140Z,94.39
2022-09-11T01:29:40.130Z,94.29
2022-09-11T01:30:40.127Z,94.29
2022-09-11T01:31:40.140Z,94.19
2022-09-11T01:32:40.099Z,94.19
2022-09-11T01:33:40.132Z,94.09
2022-09-11T01:34:40.062Z,94.09
2022-09-11T01:35:40.071Z,94.19
2022-09-11T01:36:40.047Z,94.34
2022-09-11T01:37:40.055Z,94.43
2022-09-11T01:38:40.038Z,94.54
2022-09-11T01:39:40.063Z,94.74
2022-09-11T01:40:39.997Z,94.84
2022-09-11T01:41:39.987Z,94.74
2022-09-11T01:42:39.984Z,94.54
2022-09-11T01:43:40.013Z,94.54
2022-09-11T01:44:39.964Z,94.54
2022-09-11T01:45:40.008Z,94.64
2022-09-11T01:46:39.926Z,94.39
2022-09-11T01:47:39.939Z,94.34
2022-09-11T01:48:39.904Z,94.64
2022-09-11T01:49:39.898Z,94.74
2022-09-11T01:50:39.881Z,95.04
2022-09-11T01:51:39.872Z,95.04
2022-09-11T01:52:39.893Z,95.14
2022-09-11T01:53:39.860Z,95.25
2022-09-11T01:54:39.837Z,95.35
2022-09-11T01:55:39.845Z,95.45
2022-09-11T01:56:39.843Z,95.55
2022-09-11T01:57:39.817Z,95.65
2022-09-11T01:58:39.805Z,95.86
2022-09-11T01:59:39.787Z,95.95
2022-09-11T02:00:39.817Z,96.06
2022-09-11T02:01:39.844Z,96.06
2022-09-11T02:02:39.753Z,95.95
2022-09-11T02:03:39.815Z,95.95
2022-09-11T02:04:39.748Z,95.95
2022-09-11T02:05:39.717Z,95.86
2022-09-11T02:06:39.699Z,95.65
2022-09-11T02:07:39.719Z,95.55
2022-09-11T02:08:39.688Z,95.55
2022-09-11T02:09:39.675Z,95.35
2022-09-11T02:10:39.669Z,95.35
2022-09-11T02:11:39.673Z,95.35
2022-09-11T02:12:39.650Z,95.35
2022-09-11T02:13:39.654Z,95.55
2022-09-11T02:14:39.618Z,95.65
2022-09-11T02:15:39.601Z,95.65
2022-09-11T02:16:39.584Z,95.65
2022-09-11T02:17:39.601Z,95.55
2022-09-11T02:18:39.562Z,95.55
2022-09-11T02:19:39.555Z,95.50
2022-09-11T02:20:39.554Z,95.50
2022-09-11T02:21:39.567Z,95.40
2022-09-11T02:22:39.523Z,95.30
2022-09-11T02:23:39.584Z,95.20
2022-09-11T02:24:39.506Z,95.14
2022-09-11T02:25:39.487Z,95.45
2022-09-11T02:26:39.493Z,95.75
2022-09-11T02:27:39.478Z,95.86
2022-09-11T02:28:39.479Z,96.06
2022-09-11T02:29:39.454Z,96.36
2022-09-11T02:30:39.435Z,96.46
2022-09-11T02:31:39.482Z,96.36
2022-09-11T02:32:39.413Z,96.26
2022-09-11T02:33:39.399Z,96.26
2022-09-11T02:34:39.390Z,96.36
2022-09-11T02:35:39.376Z,96.36
2022-09-11T02:36:39.365Z,96.26
2022-09-11T02:37:39.387Z,96.26
2022-09-11T02:38:39.343Z,96.06
2022-09-11T02:39:40.287Z,95.95
2022-09-11T02:40:39.311Z,95.95
2022-09-11T02:41:39.320Z,95.95
2022-09-11T02:42:39.292Z,95.95
2022-09-11T02:43:39.370Z,95.86
2022-09-11T02:44:39.288Z,95.86
2022-09-11T02:45:39.321Z,95.86
2022-09-11T02:46:39.241Z,95.75
2022-09-11T02:47:40.210Z,95.86
2022-09-11T02:48:39.223Z,95.86
2022-09-11T02:49:39.235Z,95.75
2022-09-11T02:50:39.193Z,95.86
2022-09-11T02:51:39.214Z,95.71
2022-09-11T02:52:39.175Z,95.61
2022-09-11T02:53:39.177Z,95.50
2022-09-11T02:54:39.163Z,95.50
2022-09-11T02:55:39.163Z,95.30
2022-09-11T02:56:39.128Z,95.20
2022-09-11T02:57:39.146Z,95.30
2022-09-11T02:58:39.108Z,95.30
2022-09-11T02:59:39.116Z,95.50
2022-09-11T03:00:39.117Z,95.40
2022-09-11T03:01:39.085Z,95.40
2022-09-11T03:02:39.066Z,95.40
2022-09-11T03:03:39.089Z,95.40
2022-09-11T03:04:39.037Z,95.30
2022-09-11T03:05:39.058Z,95.40
2022-09-11T03:06:40.017Z,95.30
2022-09-11T03:07:39.000Z,95.20
2022-09-11T03:08:38.988Z,95.20
2022-09-11T03:09:38.980Z,95.00
2022-09-11T03:10:39.006Z,95.00
2022-09-11T03:11:38.971Z,95.00
2022-09-11T03:12:38.949Z,95.00
2022-09-11T03:13:39.028Z,95.00
2022-09-11T03:14:38.937Z,94.90
2022-09-11T03:15:38.933Z,94.90
2022-09-11T03:16:38.980Z,95.00
2022-09-11T03:17:38.892Z,95.00
2022-09-11T03:18:38.876Z,95.10
2022-09-11T03:19:38.867Z,95.00
2022-09-11T03:20:38.860Z,94.90
2022-09-11T03:21:38.890Z,94.79
2022-09-11T03:22:38.830Z,94.75
2022-09-11T03:23:38.941Z,94.79
2022-09-11T03:24:38.819Z,94.65
2022-09-11T03:25:38.799Z,94.65
2022-09-11T03:26:38.810Z,94.65
2022-09-11T03:27:38.788Z,94.55
2022-09-11T03:28:38.776Z,94.55
2022-09-11T03:29:38.781Z,94.55
2022-09-11T03:30:38.764Z,94.45
2022-09-11T03:31:39.526Z,94.49
2022-09-11T03:32:38.733Z,94.59
2022-09-11T03:33:38.802Z,94.59
2022-09-11T03:34:38.698Z,94.65
2022-09-11T03:35:38.707Z,94.65
2022-09-11T03:36:38.677Z,94.65
2022-09-11T03:37:39.628Z,94.55
2022-09-11T03:38:38.654Z,94.55
2022-09-11T03:39:38.692Z,94.55
2022-09-11T03:40:38.631Z,94.55
2022-09-11T03:41:38.628Z,94.70
2022-09-11T03:42:38.608Z,94.79
2022-09-11T03:43:38.647Z,94.79
2022-09-11T03:44:38.590Z,94.79
2022-09-11T03:45:38.606Z,94.70
2022-09-11T03:46:38.562Z,94.59
2022-09-11T03:47:38.555Z,94.49
2022-09-11T03:48:38.535Z,94.39
2022-09-11T03:49:38.546Z,94.45
2022-09-11T03:50:38.528Z,94.35
2022-09-11T03:51:38.525Z,94.24
2022-09-11T03:52:38.494Z,94.14
2022-09-11T03:53:38.543Z,94.24
2022-09-11T03:54:38.466Z,94.14
2022-09-11T03:55:38.472Z,94.24
2022-09-11T03:56:38.460Z,94.14
2022-09-11T03:57:38.436Z,94.14
2022-09-11T03:58:38.426Z,94.14
2022-09-11T03:59:38.444Z,94.14
2022-09-11T04:00:38.431Z,94.24
2022-09-11T04:01:38.488Z,94.24
2022-09-11T04:02:38.388Z,94.24
2022-09-11T04:03:38.402Z,94.24
2022-09-11T04:04:38.352Z,94.39
2022-09-11T04:05:38.354Z,94.35
2022-09-11T04:06:38.330Z,94.35
2022-09-11T04:07:38.320Z,94.35
2022-09-11T04:08:38.331Z,94.35
2022-09-11T04:09:38.301Z,94.35
2022-09-11T04:10:38.299Z,94.45
2022-09-11T04:11:38.291Z,94.59
2022-09-11T04:12:38.262Z,94.70
2022-09-11T04:13:38.339Z,94.70
2022-09-11T04:14:38.246Z,94.70
2022-09-11T04:15:38.223Z,94.70
2022-09-11T04:16:38.416Z,94.79
2022-09-11T04:17:38.215Z,94.79
2022-09-11T04:18:38.193Z,95.00
2022-09-11T04:19:38.184Z,95.00
2022-09-11T04:20:38.174Z,95.00
2022-09-11T04:21:38.174Z,95.10
2022-09-11T04:22:38.149Z,95.10
2022-09-11T04:23:38.207Z,95.20
2022-09-11T04:24:38.126Z,95.20
2022-09-11T04:25:38.118Z,95.30
2022-09-11T04:26:38.117Z,95.30
2022-09-11T04:27:39.041Z,95.30
2022-09-11T04:28:38.078Z,95.40
2022-09-11T04:29:38.088Z,95.50
2022-09-11T04:30:38.049Z,95.40
2022-09-11T04:31:38.079Z,95.50
2022-09-11T04:32:38.033Z,95.50
2022-09-11T04:33:38.051Z,95.30
2022-09-11T04:34:38.042Z,95.40
2022-09-11T04:35:38.011Z,95.40
2022-09-11T04:36:37.988Z,95.40
2022-09-11T04:37:37.999Z,95.50
2022-09-11T04:38:37.964Z,95.50
2022-09-11T04:39:38.027Z,95.30
2022-09-11T04:40:37.960Z,95.20
2022-09-11T04:41:37.932Z,95.10
2022-09-11T04:42:37.926Z,94.95
2022-09-11T04:43:37.913Z,94.85
2022-09-11T04:44:37.935Z,94.75
2022-09-11T04:45:37.928Z,94.75
2022-09-11T04:46:37.884Z,94.65
2022-09-11T04:47:37.895Z,94.65
2022-09-11T04:48:37.865Z,94.55
2022-09-11T04:49:37.874Z,94.45
2022-09-11T04:50:37.843Z,94.45
2022-09-11T04:51:37.826Z,94.35
2022-09-11T04:52:37.835Z,94.24
2022-09-11T04:53:37.800Z,93.94
2022-09-11T04:54:37.817Z,93.94
2022-09-11T04:55:37.781Z,94.29
2022-09-11T04:56:37.758Z,94.39
2022-09-11T04:57:37.755Z,94.59
2022-09-11T04:58:37.750Z,94.39
2022-09-11T04:59:37.754Z,94.19
2022-09-11T05:00:37.840Z,94.39
2022-09-11T05:01:37.710Z,94.19
2022-09-11T05:02:37.732Z,94.29
2022-09-11T05:03:37.687Z,94.09
2022-09-11T05:04:37.673Z,93.99
2022-09-11T05:05:37.673Z,93.88
2022-09-11T05:06:37.668Z,93.99
2022-09-11T05:07:37.657Z,93.88
2022-09-11T05:08:37.623Z,93.88
2022-09-11T05:09:37.615Z,93.99
2022-09-11T05:10:37.613Z,93.99
2022-09-11T05:11:37.612Z,94.19
2022-09-11T05:12:37.593Z,94.29
2022-09-11T05:13:37.610Z,94.29
2022-09-11T05:14:37.593Z,94.19
2022-09-11T05:15:37.553Z,94.29
2022-09-11T05:16:37.624Z,94.49
2022-09-11T05:17:38.503Z,94.59
2022-09-11T05:18:37.516Z,94.49
2022-09-11T05:19:37.515Z,94.49
2022-09-11T05:20:37.496Z,94.39
2022-09-11T05:21:37.502Z,94.39
2022-09-11T05:22:37.519Z,94.39
2022-09-11T05:23:37.478Z,94.49
2022-09-11T05:24:37.463Z,94.59
2022-09-11T05:25:37.435Z,94.70
2022-09-11T05:26:37.432Z,94.79
2022-09-11T05:27:37.428Z,94.79
2022-09-11T05:28:37.436Z,94.70
2022-09-11T05:29:37.402Z,94.70
2022-09-11T05:30:37.388Z,94.70
2022-09-11T05:31:37.533Z,94.70
2022-09-11T05:32:37.388Z,94.79
2022-09-11T05:33:37.372Z,94.90
2022-09-11T05:34:37.354Z,94.79
2022-09-11T05:35:37.320Z,94.70
2022-09-11T05:36:37.325Z,94.49
2022-09-11T05:37:37.318Z,94.49
2022-09-11T05:38:37.295Z,94.49
2022-09-11T05:39:37.332Z,94.39
2022-09-11T05:40:37.283Z,94.29
2022-09-11T05:41:38.214Z,94.09
2022-09-11T05:42:37.246Z,93.99
2022-09-11T05:43:37.237Z,94.09
2022-09-11T05:44:37.222Z,94.09
2022-09-11T05:45:37.307Z,94.29
2022-09-11T05:46:37.223Z,94.29
2022-09-11T05:47:37.212Z,94.39
2022-09-11T05:48:37.176Z,94.49
2022-09-11T05:49:37.173Z,94.79
2022-09-11T05:50:37.161Z,95.00
2022-09-11T05:51:37.146Z,95.10
2022-09-11T05:52:37.159Z,95.10
2022-09-11T05:53:37.109Z,95.10
2022-09-11T05:54:37.775Z,95.10
2022-09-11T05:55:37.116Z,95.10
2022-09-11T05:56:37.093Z,94.90
2022-09-11T05:57:37.073Z,94.59
2022-09-11T05:58:37.073Z,94.49
2022-09-11T05:59:37.055Z,94.39
2022-09-11T06:00:37.057Z,94.29
2022-09-11T06:01:37.130Z,94.19
2022-09-11T06:02:37.041Z,94.19
2022-09-11T06:03:37.011Z,94.19
2022-09-11T06:04:36.994Z,93.99
2022-09-11T06:05:36.984Z,93.88
2022-09-11T06:06:36.975Z,93.78
2022-09-11T06:07:36.973Z,93.63
2022-09-11T06:08:36.959Z,93.63
2022-09-11T06:09:36.948Z,93.54
2022-09-11T06:10:36.937Z,93.43
2022-09-11T06:11:37.966Z,93.43
2022-09-11T06:12:36.917Z,93.54
2022-09-11T06:13:36.940Z,93.43
2022-09-11T06:14:36.886Z,93.33
2022-09-11T06:15:46.606Z,93.54
2022-09-11T06:16:37.910Z,93.68
2022-09-11T06:17:36.863Z,93.78
2022-09-11T06:18:36.845Z,94.19
2022-09-11T06:19:36.851Z,94.39
2022-09-11T06:20:36.863Z,94.49
2022-09-11T06:21:36.821Z,94.49
2022-09-11T06:22:36.841Z,94.70
2022-09-11T06:23:36.803Z,94.90
2022-09-11T06:24:36.794Z,95.10
2022-09-11T06:25:36.760Z,95.00
2022-09-11T06:26:36.759Z,95.14
2022-09-11T06:27:36.746Z,95.45
2022-09-11T06:28:36.738Z,95.75
2022-09-11T06:29:36.732Z,95.65
2022-09-11T06:30:36.767Z,95.75
2022-09-11T06:31:36.717Z,95.86
2022-09-11T06:32:36.693Z,95.55
2022-09-11T06:33:36.675Z,95.25
2022-09-11T06:34:36.690Z,94.90
2022-09-11T06:35:36.673Z,94.70
2022-09-11T06:36:36.665Z,94.59
2022-09-11T06:37:36.644Z,94.39
2022-09-11T06:38:36.627Z,94.09
2022-09-11T06:39:36.615Z,93.99
2022-09-11T06:40:36.597Z,93.88
2022-09-11T06:41:36.590Z,93.78
2022-09-11T06:42:36.575Z,93.84
2022-09-11T06:43:36.557Z,93.74
2022-09-11T06:44:36.576Z,93.54
2022-09-11T06:45:36.582Z,93.54
2022-09-11T06:46:36.528Z,93.43
2022-09-11T06:47:36.533Z,93.13
2022-09-11T06:48:36.512Z,93.23
2022-09-11T06:49:36.487Z,93.23
2022-09-11T06:50:37.014Z,93.23
2022-09-11T06:51:36.465Z,93.13
2022-09-11T06:52:36.472Z,93.13
2022-09-11T06:53:36.471Z,93.03
2022-09-11T06:54:36.433Z,92.58
2022-09-11T06:55:36.439Z,92.48
2022-09-11T06:56:36.434Z,92.48
2022-09-11T06:57:41.167Z,92.38
2022-09-11T06:58:37.395Z,92.18
2022-09-11T06:59:36.484Z,91.97
2022-09-11T07:00:36.362Z,91.97
2022-09-11T07:01:36.517Z,92.08
2022-09-11T07:02:36.342Z,92.08
2022-09-11T07:03:36.334Z,92.18
2022-09-11T07:04:36.334Z,92.03
2022-09-11T07:05:36.315Z,92.03
2022-09-11T07:06:36.305Z,92.03
2022-09-11T07:07:36.297Z,91.93
2022-09-11T07:08:37.752Z,91.83
2022-09-11T07:09:36.264Z,91.42
2022-09-11T07:10:36.259Z,91.22
2022-09-11T07:11:36.245Z,91.22
2022-09-11T07:12:36.239Z,91.32
2022-09-11T07:13:37.554Z,91.53
2022-09-11T07:14:36.280Z,91.42
2022-09-11T07:15:36.201Z,91.32
2022-09-11T07:16:36.231Z,91.53
2022-09-11T07:17:36.173Z,91.83
2022-09-11T07:18:36.293Z,91.42
2022-09-11T07:19:36.176Z,91.42
2022-09-11T07:20:36.199Z,91.42
2022-09-11T07:21:36.125Z,91.18
2022-09-11T07:22:36.121Z,90.72
2022-09-11T07:23:36.100Z,90.58
2022-09-11T07:24:36.122Z,90.07
2022-09-11T07:25:36.087Z,90.31
2022-09-11T07:26:36.112Z,90.01
2022-09-11T07:27:36.288Z,89.56
2022-09-11T07:28:36.042Z,89.46
2022-09-11T07:29:36.046Z,89.66
2022-09-11T07:30:36.038Z,89.26
2022-09-11T07:31:36.249Z,88.75
2022-09-11T07:32:35.995Z,88.65
2022-09-11T07:33:35.989Z,88.96
2022-09-11T07:34:36.923Z,88.75
2022-09-11T07:35:36.907Z,88.85
2022-09-11T07:36:35.970Z,88.85
2022-09-11T07:37:35.950Z,88.75
2022-09-11T07:38:35.935Z,88.85
2022-09-11T07:39:37.403Z,88.35
2022-09-11T07:40:35.920Z,88.45
2022-09-11T07:41:35.922Z,88.25
2022-09-11T07:42:35.894Z,88.35
2022-09-11T07:43:36.846Z,88.61
2022-09-11T07:44:35.860Z,88.25
2022-09-11T07:45:35.880Z,88.41
2022-09-11T07:46:35.851Z,88.51
2022-09-11T07:47:35.819Z,88.41
2022-09-11T07:48:35.865Z,87.60
2022-09-11T07:49:35.807Z,87.19
2022-09-11T07:50:35.803Z,86.49
2022-09-11T07:51:35.799Z,86.79
2022-09-11T07:52:35.775Z,87.50
2022-09-11T07:53:35.758Z,87.30
2022-09-11T07:54:35.748Z,86.79
2022-09-11T07:55:36.713Z,86.99
2022-09-11T07:56:35.732Z,86.35
2022-09-11T07:57:35.716Z,86.15
2022-09-11T07:58:35.699Z,85.74
2022-09-11T07:59:35.684Z,86.25
2022-09-11T08:00:37.178Z,85.84
2022-09-11T08:01:35.700Z,85.74
2022-09-11T08:02:35.695Z,85.54
2022-09-11T08:03:35.689Z,85.64
2022-09-11T08:04:35.632Z,86.08
2022-09-11T08:05:35.639Z,86.25
2022-09-11T08:06:35.612Z,86.25
2022-09-11T08:07:37.065Z,86.04
2022-09-11T08:08:35.599Z,85.84
2022-09-11T08:09:35.574Z,85.30
2022-09-11T08:10:35.569Z,84.79
2022-09-11T08:11:35.569Z,84.39
2022-09-11T08:12:35.563Z,84.09
2022-09-11T08:13:35.537Z,83.84
2022-09-11T08:14:35.556Z,83.84
2022-09-11T08:15:35.513Z,84.05
2022-09-11T08:16:35.563Z,83.74
2022-09-11T08:17:35.480Z,83.54
2022-09-11T08:18:35.472Z,83.50
2022-09-11T08:19:35.471Z,83.40
2022-09-11T08:20:35.493Z,83.64
2022-09-11T08:21:35.452Z,82.13
2022-09-11T08:22:35.454Z,82.33
2022-09-11T08:23:35.411Z,82.53
2022-09-11T08:24:35.405Z,82.33
2022-09-11T08:25:35.396Z,82.53
2022-09-11T08:26:35.460Z,83.14
2022-09-11T08:27:35.426Z,83.24
2022-09-11T08:28:35.375Z,83.24
2022-09-11T08:29:35.347Z,83.14
2022-09-11T08:30:35.357Z,83.24
2022-09-11T08:31:35.436Z,83.44
2022-09-11T08:32:35.677Z,83.24
2022-09-11T08:33:35.306Z,83.44
2022-09-11T08:34:35.309Z,83.54
2022-09-11T08:35:35.302Z,83.44
2022-09-11T08:36:35.288Z,83.44
2022-09-11T08:37:35.261Z,83.38
2022-09-11T08:38:35.256Z,83.28
2022-09-11T08:39:35.292Z,83.48
2022-09-11T08:40:35.219Z,83.58
2022-09-11T08:41:35.232Z,83.68
2022-09-11T08:42:35.205Z,83.58
2022-09-11T08:43:35.212Z,83.54
2022-09-11T08:44:39.068Z,83.44
2022-09-11T08:45:35.193Z,83.68
2022-09-11T08:46:35.180Z,83.88
2022-09-11T08:47:35.150Z,83.88
2022-09-11T08:48:35.141Z,83.58
2022-09-11T08:49:35.123Z,83.34
2022-09-11T08:50:35.123Z,83.24
2022-09-11T08:51:36.055Z,83.24
2022-09-11T08:52:35.129Z,83.44
2022-09-11T08:53:35.081Z,83.64
2022-09-11T08:54:35.057Z,83.64
2022-09-11T08:55:35.058Z,83.54
2022-09-11T08:56:35.049Z,83.54
2022-09-11T08:57:35.053Z,83.54
2022-09-11T08:58:35.021Z,83.34
2022-09-11T08:59:35.017Z,83.54
2022-09-11T09:00:34.996Z,83.54
2022-09-11T09:01:35.070Z,83.54
2022-09-11T09:02:35.046Z,83.64
2022-09-11T09:03:34.962Z,83.44
2022-09-11T09:04:34.950Z,83.54
2022-09-11T09:05:34.944Z,83.54
2022-09-11T09:06:34.972Z,83.64
2022-09-11T09:07:35.134Z,83.84
2022-09-11T09:08:35.412Z,84.05
2022-09-11T09:09:35.303Z,84.05
2022-09-11T09:10:35.656Z,84.35
2022-09-11T09:11:34.899Z,84.35
2022-09-11T09:12:35.725Z,84.55
2022-09-11T09:13:34.855Z,84.45
2022-09-11T09:14:34.852Z,84.35
2022-09-11T09:15:34.857Z,84.45
2022-09-11T09:16:35.661Z,84.45
2022-09-11T09:17:34.844Z,84.45
2022-09-11T09:18:34.794Z,84.69
2022-09-11T09:19:34.801Z,84.79
2022-09-11T09:20:34.788Z,84.79
2022-09-11T09:21:34.767Z,85.30
2022-09-11T09:22:34.778Z,85.40
2022-09-11T09:23:34.763Z,85.30
2022-09-11T09:24:34.733Z,85.30
2022-09-11T09:25:34.723Z,85.16
2022-09-11T09:26:38.362Z,85.16
2022-09-11T09:27:34.732Z,84.85
2022-09-11T09:28:34.675Z,84.45
2022-09-11T09:29:34.730Z,84.65
2022-09-11T09:30:34.669Z,84.95
2022-09-11T09:31:34.652Z,84.95
2022-09-11T09:32:34.629Z,84.95
2022-09-11T09:33:34.633Z,84.95
2022-09-11T09:34:34.616Z,85.05
2022-09-11T09:35:34.628Z,85.36
2022-09-11T09:36:34.591Z,85.25
2022-09-11T09:37:34.599Z,84.75
2022-09-11T09:38:34.599Z,84.65
2022-09-11T09:39:34.563Z,84.55
2022-09-11T09:40:34.534Z,84.55
2022-09-11T09:41:34.536Z,84.75
2022-09-11T09:42:34.544Z,85.05
2022-09-11T09:43:35.460Z,85.36
2022-09-11T09:44:34.593Z,85.56
2022-09-11T09:45:34.562Z,85.46
2022-09-11T09:46:34.465Z,85.66
2022-09-11T09:47:34.480Z,85.46
2022-09-11T09:48:34.450Z,85.36
2022-09-11T09:49:34.577Z,85.36
2022-09-11T09:50:34.426Z,85.16
2022-09-11T09:51:34.441Z,85.05
2022-09-11T09:52:34.431Z,85.16
2022-09-11T09:53:34.400Z,85.05
2022-09-11T09:54:34.378Z,84.55
2022-09-11T09:55:35.336Z,84.41
2022-09-11T09:56:34.363Z,84.31
2022-09-11T09:57:34.367Z,84.31
2022-09-11T09:58:35.633Z,84.41
2022-09-11T09:59:34.338Z,84.61
2022-09-11T10:00:34.307Z,84.61
2022-09-11T10:01:34.342Z,84.51
2022-09-11T10:02:34.345Z,84.51
2022-09-11T10:03:34.315Z,84.21
2022-09-11T10:04:34.421Z,84.21
2022-09-11T10:05:34.270Z,84.31
2022-09-11T10:06:34.248Z,84.41
2022-09-11T10:07:34.243Z,84.61
2022-09-11T10:08:34.294Z,84.51
2022-09-11T10:09:34.204Z,84.75
2022-09-11T10:10:34.210Z,85.16
2022-09-11T10:11:34.217Z,85.56
2022-09-11T10:12:35.645Z,85.05
2022-09-11T10:13:34.192Z,85.46
2022-09-11T10:14:51.110Z,86.10
2022-09-11T10:15:35.159Z,86.00
2022-09-11T10:16:34.129Z,86.21
2022-09-11T10:17:34.125Z,86.61
2022-09-11T10:18:34.214Z,86.04
2022-09-11T10:19:34.096Z,86.35
2022-09-11T10:20:34.087Z,86.04
2022-09-11T10:21:34.094Z,86.55
2022-09-11T10:22:34.067Z,86.81
2022-09-11T10:23:34.071Z,86.81
2022-09-11T10:24:34.054Z,86.41
2022-09-11T10:25:34.054Z,86.30
2022-09-11T10:26:34.032Z,85.80
2022-09-11T10:27:34.032Z,85.70
2022-09-11T10:28:34.091Z,85.25
2022-09-11T10:29:33.984Z,85.36
2022-09-11T10:30:34.018Z,85.25
2022-09-11T10:31:33.977Z,85.56
2022-09-11T10:32:33.948Z,85.56
2022-09-11T10:33:35.402Z,85.05
2022-09-11T10:34:33.923Z,84.65
2022-09-11T10:35:33.914Z,84.81
2022-09-11T10:36:33.905Z,84.41
2022-09-11T10:37:35.392Z,84.27
2022-09-11T10:38:36.944Z,83.66
2022-09-11T10:39:34.882Z,83.56
2022-09-11T10:40:33.872Z,83.26
2022-09-11T10:41:33.884Z,82.51
2022-09-11T10:42:33.865Z,82.31
2022-09-11T10:43:35.324Z,82.51
2022-09-11T10:44:33.817Z,82.62
2022-09-11T10:45:33.909Z,82.45
2022-09-11T10:46:37.444Z,82.86
2022-09-11T10:47:33.798Z,83.36
2022-09-11T10:48:33.857Z,82.86
2022-09-11T10:49:33.842Z,83.36
2022-09-11T10:50:33.909Z,83.16
2022-09-11T10:51:33.749Z,83.60
2022-09-11T10:52:33.952Z,83.80
2022-09-11T10:53:33.728Z,84.41
2022-09-11T10:54:33.704Z,84.41
2022-09-11T10:55:33.855Z,83.91
2022-09-11T10:56:33.702Z,82.79
2022-09-11T10:57:33.689Z,82.29
2022-09-11T10:58:33.727Z,81.79
2022-09-11T10:59:33.647Z,81.38
2022-09-11T11:00:33.681Z,81.99
2022-09-11T11:01:33.660Z,82.39
2022-09-11T11:02:33.625Z,82.90
2022-09-11T11:03:33.609Z,83.50
2022-09-11T11:04:33.596Z,84.11
2022-09-11T11:05:33.586Z,84.61
2022-09-11T11:06:33.561Z,85.22
2022-09-11T11:07:33.565Z,85.66
2022-09-11T11:08:33.556Z,86.47
2022-09-11T11:09:33.517Z,87.12
2022-09-11T11:10:33.528Z,88.02
2022-09-11T11:11:33.515Z,88.32
2022-09-11T11:12:33.517Z,88.32
2022-09-11T11:13:33.487Z,88.12
2022-09-11T11:14:33.484Z,87.58
2022-09-11T11:15:33.462Z,87.58
2022-09-11T11:16:33.476Z,86.87
2022-09-11T11:17:33.457Z,86.77
2022-09-11T11:18:33.445Z,86.47
2022-09-11T11:19:33.438Z,86.91
2022-09-11T11:20:33.401Z,87.52
2022-09-11T11:21:33.386Z,87.58
2022-09-11T11:22:33.379Z,87.38
2022-09-11T11:23:33.391Z,87.07
2022-09-11T11:24:33.361Z,86.97
2022-09-11T11:25:33.359Z,86.73
2022-09-11T11:26:33.362Z,86.33
2022-09-11T11:27:33.324Z,86.02
2022-09-11T11:28:33.342Z,85.68
2022-09-11T11:29:33.338Z,85.58
2022-09-11T11:30:33.286Z,85.48
2022-09-11T11:31:33.348Z,85.48
2022-09-11T11:32:33.277Z,85.08
2022-09-11T11:33:33.273Z,84.77
2022-09-11T11:34:33.271Z,84.23
2022-09-11T11:35:33.247Z,83.52
2022-09-11T11:36:33.235Z,83.93
2022-09-11T11:37:33.209Z,83.93
2022-09-11T11:38:33.337Z,83.52
2022-09-11T11:39:33.201Z,83.72
2022-09-11T11:40:33.203Z,84.43
2022-09-11T11:41:33.243Z,84.43
2022-09-11T11:42:33.156Z,84.23
2022-09-11T11:43:33.152Z,84.03
2022-09-11T11:44:33.148Z,83.93
2022-09-11T11:45:33.223Z,83.12
2022-09-11T11:46:33.493Z,83.12
2022-09-11T11:47:33.130Z,83.52
2022-09-11T11:48:33.269Z,83.52
2022-09-11T11:49:33.072Z,83.32
2022-09-11T11:50:33.082Z,83.12
2022-09-11T11:51:33.103Z,82.71
2022-09-11T11:52:33.060Z,83.22
2022-09-11T11:53:33.044Z,83.22
2022-09-11T11:54:33.250Z,83.32
2022-09-11T11:55:33.036Z,82.92
2022-09-11T11:56:33.002Z,82.92
2022-09-11T11:57:32.992Z,82.42
2022-09-11T11:58:32.991Z,82.21
2022-09-11T11:59:33.007Z,82.01
2022-09-11T12:00:32.975Z,82.11
2022-09-11T12:01:33.009Z,82.25
2022-09-11T12:02:32.947Z,82.56
2022-09-11T12:03:32.994Z,82.56
2022-09-11T12:04:32.927Z,83.16
2022-09-11T12:05:32.931Z,83.36
2022-09-11T12:06:32.930Z,82.76
2022-09-11T12:07:32.880Z,82.65
2022-09-11T12:08:32.890Z,82.21
2022-09-11T12:09:33.814Z,82.21
2022-09-11T12:10:32.838Z,81.91
2022-09-11T12:11:32.838Z,82.42
2022-09-11T12:12:32.833Z,82.62
2022-09-11T12:13:32.810Z,82.21
2022-09-11T12:14:32.783Z,81.21
2022-09-11T12:15:32.785Z,81.41
2022-09-11T12:16:32.855Z,81.41
2022-09-11T12:17:32.768Z,81.01
2022-09-11T12:18:32.751Z,81.41
2022-09-11T12:19:32.742Z,80.90
2022-09-11T12:20:32.726Z,80.90
2022-09-11T12:21:32.735Z,81.10
2022-09-11T12:22:32.707Z,81.21
2022-09-11T12:23:32.695Z,81.21
2022-09-11T12:24:32.691Z,81.27
2022-09-11T12:25:32.672Z,81.07
2022-09-11T12:26:32.671Z,80.52
2022-09-11T12:27:32.646Z,80.77
2022-09-11T12:28:32.645Z,80.57
2022-09-11T12:29:32.618Z,80.57
2022-09-11T12:30:32.608Z,80.87
2022-09-11T12:31:32.630Z,80.46
2022-09-11T12:32:32.621Z,80.46
2022-09-11T12:33:32.604Z,80.57
2022-09-11T12:34:32.606Z,80.43
2022-09-11T12:35:32.754Z,80.52
2022-09-11T12:36:32.563Z,80.43
2022-09-11T12:37:32.559Z,80.52
2022-09-11T12:38:32.549Z,80.12
2022-09-11T12:39:33.779Z,79.82
2022-09-11T12:40:32.532Z,79.08
2022-09-11T12:41:32.930Z,78.58
2022-09-11T12:42:33.964Z,78.38
2022-09-11T12:43:32.485Z,78.27
2022-09-11T12:44:32.464Z,78.38
2022-09-11T12:45:32.506Z,78.88
2022-09-11T12:46:32.653Z,79.18
2022-09-11T12:47:35.325Z,78.78
2022-09-11T12:48:32.413Z,78.14
2022-09-11T12:49:32.407Z,78.03
2022-09-11T12:50:32.406Z,77.53
2022-09-11T12:51:32.377Z,77.43
2022-09-11T12:52:32.393Z,77.33